Aviation Digital Data Service (ADDS)

Output produced by METARs form (1232 UTC 26 March 2019)
found at http://www.aviationweather.gov/metar/data/
 
FMMI 261230Z 29008KT 260V320 9999 SCT023CB 29/17 Q1015 TEMPO TS
TAF FMMI 261100Z 2612/2718 30008KT 9999 SCT023CB 
     PROB30 
     TEMPO 2613/2621 4000 TSRA 
     BECMG 2620/2622 FEW007 BKN020 
     PROB30 2701/2705 2000 BR BKN004 
     BECMG 2710/2712 SCT023CB
       
FMNA 261200Z 28008KT 9999 FEW020CB SCT230 30/25 Q1009
TAF FMNA 261100Z 2612/2712 28010KT 9999 SCT020CB 
     PROB30 
     TEMPO 2612/2615 4000 TSRA 
     BECMG 2614/2616 SCT020
       
FMNM 261200Z 32008KT 9999 FEW020CB 32/26 Q1009 NOSIG
TAF FMNM 261100Z 2612/2712 32008KT 9999 FEW020CB 
     BECMG 2618/2620 24004KT
       
FMNN 261100Z 00000KT 9999 BKN020CB 29/27 Q1010
TAF FMNN 261100Z 2612/2712 32005KT 9999 BKN020CB 
     PROB30 
     TEMPO 2618/2621 4000 TSRA 
     BECMG 2620/2622 SCT020
       
FMMS 261200Z 11004KT 9999 VCTS FEW017CB BKN250 30/25 Q1009
TAF FMMS 261100Z 2612/2712 10006KT 9999 SCT020 SCT033 
     BECMG 2615/2618 30010KT SCT017 SCT033
       
FMMT 261200Z VRB02KT 9999 FEW020CB SCT040 29/25 Q1008 TEMPO 3500 TSRA
TAF FMMT 261100Z 2612/2712 05005KT 9999 SCT020CB SCT033 
     PROB30 
     TEMPO 2621/2702 TSRA
       
FMSD 261200Z 14004KT 9999 FEW020CB 30/26 Q1009
TAF FMSD 261100Z 2612/2712 VRB05KT 9999 FEW020 
     BECMG 2706/2708 22010KT
       
TAF FMST 261100Z 2612/2712 24010KT 9999 FEW020 
     BECMG 2618/2620 12005KT